Hooper, Nebraska
Current Conditions -  °F | °C
As of 10:15 AM on Thursday 27 Nov 2014 (Local Time) from KFET Reporting Station
Overcast Overcast  
Wind Chill:   Ceiling: 4100
Heat Index: 17°   Visibility: 10mi
Dew Point:   Wind: 6mph
Humidity: 55%   Direction: 60°ENE
Pressure: 30.52"   Gusts: NA
Location:  41.61°N, 96.55°W
Report Text: KFET 271615Z AUTO 06005KT 10SM OVC041 M08/M16 A3052 RMK AO2 T10851162
Loading
Personal Weather Stations






























Interactive Weather Map New forecast layout! Learn more

10-Day Weather Forecast

Advertisements
Track Severe Weather on mobile